Time;durP1;ratioP1;P1;durP2;ratioP2;P2;SDS_P1;SDS_P2;PMS_P1;PMS_P2;Temp;Humidity;BMP_temperature;BMP_pressure;BME280_temperature;BME280_humidity;BME280_pressure;Samples;Min_cycle;Max_cycle;Signal;HPM_P1;HPM_P2
2024/04/04 00:01:34;;;;;;;8.88;1.08;;;9.50;99.90;;;;;;5026428;28;20029;-70
2024/04/04 00:04:00;;;;;;;12.73;1.30;;;9.40;99.90;;;;;;5025229;28;20026;-71
2024/04/04 00:06:25;;;;;;;6.68;1.10;;;9.40;99.90;;;;;;5023330;28;20031;-71
2024/04/04 00:08:52;;;;;;;5.68;0.85;;;9.50;99.90;;;;;;5024035;28;20041;-72
2024/04/04 00:11:18;;;;;;;4.15;0.80;;;9.40;99.90;;;;;;5014014;28;20082;-68
2024/04/04 00:13:44;;;;;;;4.22;0.88;;;9.40;99.90;;;;;;5019565;28;20044;-72
2024/04/04 00:16:10;;;;;;;9.75;1.08;;;9.40;99.90;;;;;;5022379;28;20552;-72
2024/04/04 00:18:35;;;;;;;10.55;1.15;;;9.30;99.90;;;;;;5034336;28;20124;-72
2024/04/04 00:21:01;;;;;;;6.90;1.10;;;9.30;99.90;;;;;;5045902;28;20029;-71
2024/04/04 00:23:27;;;;;;;10.00;0.80;;;9.20;99.90;;;;;;5042864;28;20084;-71
2024/04/04 00:25:52;;;;;;;7.10;1.20;;;9.20;99.90;;;;;;5043301;28;20105;-72
2024/04/04 00:28:18;;;;;;;8.43;1.23;;;9.20;99.90;;;;;;5035781;28;20034;-72
2024/04/04 00:30:44;;;;;;;6.72;1.85;;;9.20;99.90;;;;;;5032070;28;20588;-73
2024/04/04 00:33:11;;;;;;;10.57;1.00;;;9.10;99.90;;;;;;5031654;28;20052;-71
2024/04/04 00:35:37;;;;;;;11.23;2.95;;;9.10;99.90;;;;;;5037404;28;20040;-71
2024/04/04 00:38:03;;;;;;;8.70;0.82;;;9.00;99.90;;;;;;5043742;28;20044;-71
2024/04/04 00:40:37;;;;;;;3.78;0.80;;;9.10;99.90;;;;;;5037728;28;20033;-71
2024/04/04 00:43:03;;;;;;;7.68;1.40;;;9.00;99.90;;;;;;5045851;28;20033;-70
2024/04/04 00:45:29;;;;;;;7.35;1.10;;;8.90;99.90;;;;;;5042621;28;20179;-72
2024/04/04 00:47:55;;;;;;;8.32;0.70;;;8.90;99.90;;;;;;5040209;28;20125;-71
2024/04/04 00:50:21;;;;;;;5.22;1.00;;;8.90;99.90;;;;;;5041561;28;20048;-71
2024/04/04 00:52:47;;;;;;;7.93;0.77;;;8.90;99.90;;;;;;5044439;28;20455;-72
2024/04/04 00:55:13;;;;;;;11.25;1.35;;;8.80;99.90;;;;;;5037373;28;20040;-70
2024/04/04 00:57:39;;;;;;;11.52;0.73;;;8.80;99.90;;;;;;5043027;28;20029;-72
2024/04/04 01:00:06;;;;;;;5.28;0.80;;;9.00;99.90;;;;;;5045337;28;20107;-71
2024/04/04 01:02:32;;;;;;;4.15;0.68;;;9.00;99.90;;;;;;5043330;28;20044;-69
2024/04/04 01:04:58;;;;;;;6.65;0.73;;;9.10;99.90;;;;;;5039792;28;20028;-71
2024/04/04 01:07:25;;;;;;;11.05;1.90;;;9.10;99.90;;;;;;5036978;28;20124;-71
2024/04/04 01:09:50;;;;;;;6.45;0.60;;;9.20;99.90;;;;;;5035133;28;20067;-70
2024/04/04 01:12:16;;;;;;;8.55;0.90;;;9.30;99.90;;;;;;5041348;28;20490;-72
2024/04/04 01:14:41;;;;;;;2.83;0.50;;;9.30;99.90;;;;;;5045590;28;20083;-71
2024/04/04 01:17:07;;;;;;;5.97;0.98;;;9.30;99.90;;;;;;5043985;28;20123;-72
2024/04/04 01:19:33;;;;;;;9.63;1.13;;;9.40;99.90;;;;;;5043392;28;20041;-70
2024/04/04 01:21:58;;;;;;;5.15;0.52;;;9.40;99.90;;;;;;5041129;28;20033;-71
2024/04/04 01:24:24;;;;;;;8.07;0.77;;;9.50;99.90;;;;;;5038502;28;20048;-71
2024/04/04 01:26:49;;;;;;;7.13;1.15;;;9.50;99.90;;;;;;5043813;28;20450;-70
2024/04/04 01:29:15;;;;;;;7.55;1.67;;;9.50;99.90;;;;;;5044006;28;20029;-71
2024/04/04 01:31:41;;;;;;;7.72;0.57;;;9.50;99.90;;;;;;5036748;28;20114;-71
2024/04/04 01:34:06;;;;;;;5.43;0.52;;;9.50;99.90;;;;;;5045273;28;20035;-71
2024/04/04 01:36:32;;;;;;;7.68;0.68;;;9.50;99.90;;;;;;5033007;28;20140;-69
2024/04/04 01:38:57;;;;;;;10.82;2.35;;;9.50;99.90;;;;;;5034153;28;20040;-73
2024/04/04 01:41:23;;;;;;;9.57;1.90;;;9.60;99.90;;;;;;5035148;28;20134;-71
2024/04/04 01:43:49;;;;;;;3.03;0.60;;;9.60;99.90;;;;;;5038524;28;20087;-72
2024/04/04 01:46:14;;;;;;;4.22;0.80;;;9.50;99.90;;;;;;5042716;28;20029;-70
2024/04/04 01:48:40;;;;;;;4.47;0.73;;;9.50;99.90;;;;;;5042333;28;20029;-72
2024/04/04 01:51:05;;;;;;;4.75;0.82;;;9.50;99.90;;;;;;5044188;28;20087;-72
2024/04/04 01:53:35;;;;;;;7.28;0.68;;;9.50;99.90;;;;;;5040516;28;20096;-68
2024/04/04 01:56:01;;;;;;;12.43;0.90;;;9.60;99.90;;;;;;5022251;28;20038;-71
2024/04/04 01:58:27;;;;;;;4.97;1.02;;;9.60;99.90;;;;;;5026439;28;20453;-72
2024/04/04 02:00:52;;;;;;;8.23;1.20;;;9.50;99.90;;;;;;5027516;28;20036;-71
2024/04/04 02:03:18;;;;;;;6.72;1.48;;;9.50;99.90;;;;;;5038962;28;20324;-71
2024/04/04 02:05:44;;;;;;;5.45;0.93;;;9.60;99.90;;;;;;5046247;28;20529;-72
2024/04/04 02:08:10;;;;;;;7.45;1.40;;;9.60;99.90;;;;;;5047442;28;20044;-71
2024/04/04 02:10:36;;;;;;;6.10;1.50;;;9.60;99.90;;;;;;5047771;28;20025;-70
2024/04/04 02:13:03;;;;;;;4.85;1.75;;;9.60;99.90;;;;;;5049531;28;20040;-71
2024/04/04 02:15:29;;;;;;;6.57;1.08;;;9.60;99.90;;;;;;5045552;28;20859;-72
2024/04/04 02:17:55;;;;;;;5.43;1.00;;;9.60;99.90;;;;;;5040899;28;20036;-72
2024/04/04 02:20:22;;;;;;;8.48;2.13;;;9.70;99.90;;;;;;5044748;28;20045;-71
2024/04/04 02:22:49;;;;;;;7.15;1.42;;;9.70;99.90;;;;;;5046074;28;20491;-71
2024/04/04 02:25:15;;;;;;;14.02;1.33;;;9.70;99.90;;;;;;5050099;28;20045;-69
2024/04/04 02:27:40;;;;;;;7.13;1.10;;;9.70;99.90;;;;;;5048290;28;20071;-71
2024/04/04 02:30:06;;;;;;;3.85;1.23;;;9.70;99.90;;;;;;5048759;28;20036;-71
2024/04/04 02:32:32;;;;;;;3.22;0.90;;;9.70;99.90;;;;;;5028130;28;20049;-70
2024/04/04 02:34:58;;;;;;;6.72;1.25;;;9.70;99.90;;;;;;5018194;28;20385;-68
2024/04/04 02:37:24;;;;;;;10.70;1.80;;;9.60;99.90;;;;;;5018616;28;20049;-73
2024/04/04 02:39:49;;;;;;;5.40;1.45;;;9.60;99.90;;;;;;5025975;28;20041;-70
2024/04/04 02:42:15;;;;;;;6.18;1.25;;;9.50;99.90;;;;;;5027390;28;20044;-71
2024/04/04 02:44:41;;;;;;;17.20;1.80;;;9.40;99.90;;;;;;5021958;28;20029;-70
2024/04/04 02:47:06;;;;;;;7.70;1.02;;;9.40;99.90;;;;;;5026540;28;20038;-72
2024/04/04 02:49:32;;;;;;;14.00;1.55;;;9.40;99.90;;;;;;5026634;28;20112;-69
2024/04/04 02:51:58;;;;;;;9.18;0.90;;;9.30;99.90;;;;;;5016148;28;20033;-69
2024/04/04 02:54:23;;;;;;;6.90;0.90;;;9.30;99.90;;;;;;5030553;28;20053;-71
2024/04/04 02:56:49;;;;;;;5.03;0.90;;;9.20;99.90;;;;;;5017047;28;20049;-71
2024/04/04 02:59:15;;;;;;;6.65;1.00;;;9.30;99.90;;;;;;5025541;28;20487;-70
2024/04/04 03:01:41;;;;;;;9.43;1.38;;;9.20;99.90;;;;;;5023613;28;20029;-70
2024/04/04 03:04:07;;;;;;;5.13;0.98;;;9.20;99.90;;;;;;5025591;28;20033;-70
2024/04/04 03:06:35;;;;;;;9.10;1.45;;;9.20;99.90;;;;;;5026581;28;20116;-70
2024/04/04 03:09:01;;;;;;;6.85;1.38;;;9.20;99.90;;;;;;5025213;28;20063;-70
2024/04/04 03:11:26;;;;;;;5.90;1.20;;;9.30;99.90;;;;;;5025078;28;20393;-72
2024/04/04 03:13:52;;;;;;;7.10;0.80;;;9.20;99.90;;;;;;5022723;28;20036;-71
2024/04/04 03:16:18;;;;;;;4.55;1.10;;;9.20;99.90;;;;;;5032223;28;20044;-68
2024/04/04 03:18:43;;;;;;;3.17;0.65;;;9.20;99.90;;;;;;5031047;28;20045;-70
2024/04/04 03:21:09;;;;;;;5.45;1.05;;;9.20;99.90;;;;;;5044940;28;20037;-71
2024/04/04 03:23:35;;;;;;;5.70;0.95;;;9.20;99.90;;;;;;5038793;28;20045;-70
2024/04/04 03:26:00;;;;;;;8.43;1.10;;;9.20;99.90;;;;;;5044146;28;20372;-70
2024/04/04 03:28:26;;;;;;;9.20;1.02;;;9.20;99.90;;;;;;5039369;28;20041;-68
2024/04/04 03:30:52;;;;;;;3.40;0.93;;;9.20;99.90;;;;;;5039026;28;20129;-70
2024/04/04 03:33:17;;;;;;;8.98;1.27;;;9.20;99.90;;;;;;5040822;28;20124;-69
2024/04/04 03:35:43;;;;;;;6.38;0.65;;;9.30;99.90;;;;;;5031363;28;20053;-70
2024/04/04 03:38:09;;;;;;;11.13;1.17;;;9.30;99.90;;;;;;5024824;28;20044;-70
2024/04/04 03:40:36;;;;;;;4.18;1.05;;;9.30;99.90;;;;;;5025608;28;20029;-69
2024/04/04 03:43:02;;;;;;;8.68;1.85;;;9.30;99.90;;;;;;5006744;28;20032;-70
2024/04/04 03:45:29;;;;;;;8.85;0.75;;;9.30;99.90;;;;;;5026412;28;20465;-70
2024/04/04 03:47:57;;;;;;;7.63;1.35;;;9.30;99.90;;;;;;5027083;28;20414;-72
2024/04/04 03:50:22;;;;;;;8.65;1.67;;;9.30;99.90;;;;;;5028020;28;20036;-69
2024/04/04 03:52:48;;;;;;;4.85;0.85;;;9.30;99.90;;;;;;5025449;28;20038;-70
2024/04/04 03:55:14;;;;;;;10.02;1.60;;;9.40;99.90;;;;;;5040587;28;20779;-72
2024/04/04 03:57:39;;;;;;;4.22;0.70;;;9.40;99.90;;;;;;5041153;28;20044;-71
2024/04/04 04:00:09;;;;;;;2.70;0.70;;;9.40;99.90;;;;;;5039726;28;20041;-72
2024/04/04 04:02:35;;;;;;;5.13;2.00;;;9.40;99.90;;;;;;5043812;28;20040;-68
2024/04/04 04:05:02;;;;;;;9.88;1.77;;;9.40;99.90;;;;;;5048150;28;20032;-69
2024/04/04 04:07:27;;;;;;;11.07;1.77;;;9.40;99.90;;;;;;5045543;28;20025;-70
2024/04/04 04:09:53;;;;;;;10.63;1.52;;;9.40;99.90;;;;;;5045410;28;20043;-71
2024/04/04 04:12:18;;;;;;;5.47;1.50;;;9.50;99.90;;;;;;5044089;28;20449;-69
2024/04/04 04:14:44;;;;;;;10.32;1.98;;;9.50;99.90;;;;;;5043308;28;20509;-68
2024/04/04 04:17:09;;;;;;;3.38;0.90;;;9.50;99.90;;;;;;5043853;28;20037;-71
2024/04/04 04:19:36;;;;;;;5.90;1.70;;;9.50;99.90;;;;;;5042774;28;20454;-71
2024/04/04 04:22:01;;;;;;;6.20;2.10;;;9.50;99.90;;;;;;5038771;28;20140;-71
2024/04/04 04:24:27;;;;;;;6.38;2.33;;;9.60;99.90;;;;;;5045726;28;20116;-69
2024/04/04 04:26:53;;;;;;;4.05;1.60;;;9.60;99.90;;;;;;5045376;28;20128;-71
2024/04/04 04:29:19;;;;;;;8.32;2.17;;;9.50;99.90;;;;;;5045438;28;20044;-69
2024/04/04 04:31:45;;;;;;;11.52;2.58;;;9.60;99.90;;;;;;5042948;28;20041;-70
2024/04/04 04:34:11;;;;;;;9.25;2.30;;;9.60;99.90;;;;;;5045839;28;20047;-71
2024/04/04 04:36:40;;;;;;;4.18;2.17;;;9.70;99.90;;;;;;5038909;28;20123;-71
2024/04/04 04:39:06;;;;;;;5.90;2.10;;;9.70;99.90;;;;;;5044525;28;20033;-71
2024/04/04 04:41:31;;;;;;;7.60;2.25;;;9.70;99.90;;;;;;5042673;28;20065;-69
2024/04/04 04:43:57;;;;;;;8.60;2.83;;;9.70;99.90;;;;;;5046783;28;20028;-72
2024/04/04 04:46:23;;;;;;;6.30;2.30;;;9.70;99.90;;;;;;5047151;28;20120;-70
2024/04/04 04:48:48;;;;;;;5.25;2.70;;;9.70;99.90;;;;;;5045543;28;20100;-71
2024/04/04 04:51:14;;;;;;;5.70;2.38;;;9.80;99.90;;;;;;5047000;28;20090;-69
2024/04/04 04:53:40;;;;;;;6.43;2.65;;;9.80;99.90;;;;;;5038458;28;20029;-71
2024/04/04 04:56:07;;;;;;;7.85;2.88;;;9.80;99.90;;;;;;5042747;28;20127;-70
2024/04/04 04:58:33;;;;;;;8.52;2.95;;;9.80;99.90;;;;;;5042823;28;20045;-68
2024/04/04 05:00:59;;;;;;;6.45;2.67;;;9.90;99.90;;;;;;5028719;28;20410;-66
2024/04/04 05:03:25;;;;;;;6.18;2.90;;;9.90;99.90;;;;;;5040135;28;20033;-71
2024/04/04 05:05:51;;;;;;;9.55;2.65;;;9.90;99.90;;;;;;5038575;28;20044;-70
2024/04/04 05:08:17;;;;;;;6.80;2.53;;;9.90;99.90;;;;;;5043232;28;20037;-70
2024/04/04 05:10:43;;;;;;;6.03;2.45;;;10.00;99.90;;;;;;5042598;28;20406;-71
2024/04/04 05:13:09;;;;;;;6.50;2.97;;;10.00;99.90;;;;;;5045469;28;20037;-70
2024/04/04 05:15:45;;;;;;;11.40;3.22;;;10.00;99.90;;;;;;5041193;28;20083;-71
2024/04/04 05:18:11;;;;;;;5.85;2.75;;;10.00;99.90;;;;;;5040645;28;20102;-71
2024/04/04 05:20:37;;;;;;;5.43;2.80;;;10.00;99.90;;;;;;5034660;28;20056;-71
2024/04/04 05:23:03;;;;;;;5.18;3.30;;;10.10;99.90;;;;;;5038743;28;20033;-70
2024/04/04 05:25:28;;;;;;;7.00;3.00;;;10.00;99.90;;;;;;5041758;28;20045;-71
2024/04/04 05:27:54;;;;;;;5.35;2.90;;;10.10;99.90;;;;;;5040062;28;20847;-71
2024/04/04 05:30:20;;;;;;;7.05;3.55;;;10.10;99.90;;;;;;5040839;28;20086;-69
2024/04/04 05:32:46;;;;;;;6.55;3.20;;;10.10;99.90;;;;;;5040215;28;20029;-71
2024/04/04 05:35:12;;;;;;;6.20;3.53;;;10.10;99.90;;;;;;5037900;28;20045;-70
2024/04/04 05:37:37;;;;;;;9.15;3.72;;;10.10;99.90;;;;;;5041897;28;20037;-69
2024/04/04 05:40:04;;;;;;;6.75;3.50;;;10.20;99.90;;;;;;5043930;28;20069;-69
2024/04/04 05:42:30;;;;;;;9.13;3.05;;;10.20;99.90;;;;;;5047517;28;20033;-71
2024/04/04 05:44:56;;;;;;;8.07;3.42;;;10.20;99.90;;;;;;5043294;28;20041;-72
2024/04/04 05:47:22;;;;;;;5.25;2.65;;;10.10;99.90;;;;;;5046538;28;20044;-70
2024/04/04 05:49:47;;;;;;;9.32;2.78;;;10.10;99.90;;;;;;5043559;28;20021;-72
2024/04/04 05:52:13;;;;;;;10.57;2.70;;;10.20;99.90;;;;;;5044549;28;20060;-71
2024/04/04 05:54:39;;;;;;;5.22;2.15;;;10.20;99.90;;;;;;5043607;28;20044;-70
2024/04/04 05:57:08;;;;;;;7.68;2.45;;;10.30;99.90;;;;;;5045579;28;20147;-71
2024/04/04 05:59:33;;;;;;;6.35;2.20;;;10.30;99.90;;;;;;5043821;28;20037;-68
2024/04/04 06:01:59;;;;;;;3.80;1.77;;;10.30;99.90;;;;;;5041410;28;20033;-69
2024/04/04 06:04:26;;;;;;;4.43;2.00;;;10.30;99.90;;;;;;5044849;28;20406;-72
2024/04/04 06:06:52;;;;;;;5.53;2.58;;;10.40;99.90;;;;;;5033989;28;20082;-73
2024/04/04 06:09:17;;;;;;;4.32;2.20;;;10.40;99.90;;;;;;5043914;28;20036;-67
2024/04/04 06:11:43;;;;;;;5.63;2.22;;;10.40;99.90;;;;;;5045541;28;20025;-70
2024/04/04 06:14:08;;;;;;;5.53;2.13;;;10.40;99.90;;;;;;5046655;28;20043;-70
2024/04/04 06:16:35;;;;;;;6.32;2.17;;;10.50;99.90;;;;;;5042797;28;20536;-68
2024/04/04 06:19:01;;;;;;;6.15;2.60;;;10.50;99.90;;;;;;5045190;28;20029;-71
2024/04/04 06:21:26;;;;;;;4.38;2.28;;;10.50;99.90;;;;;;5045809;28;20033;-69
2024/04/04 06:23:52;;;;;;;5.90;2.45;;;10.60;99.90;;;;;;5045234;28;20059;-71
2024/04/04 06:26:18;;;;;;;7.90;2.25;;;10.60;99.90;;;;;;5045215;28;20033;-66
2024/04/04 06:28:46;;;;;;;6.55;2.25;;;10.60;99.90;;;;;;5046222;28;20048;-71
2024/04/04 06:31:12;;;;;;;4.07;1.83;;;10.60;99.90;;;;;;5046272;28;20048;-69
2024/04/04 06:33:38;;;;;;;3.67;1.75;;;10.70;99.90;;;;;;5045399;28;20037;-70
2024/04/04 06:36:04;;;;;;;7.15;2.10;;;10.70;99.90;;;;;;5044066;28;20174;-71
2024/04/04 06:38:30;;;;;;;6.45;1.60;;;10.70;99.90;;;;;;5026905;28;20399;-68
2024/04/04 06:40:55;;;;;;;5.05;2.00;;;10.70;99.90;;;;;;5029775;28;20033;-69
2024/04/04 06:43:21;;;;;;;5.70;2.55;;;10.70;99.90;;;;;;5034629;28;20385;-69
2024/04/04 06:45:47;;;;;;;7.30;1.83;;;10.80;99.90;;;;;;5041746;28;20040;-71
2024/04/04 06:48:12;;;;;;;4.47;1.75;;;10.80;99.90;;;;;;5043412;28;20049;-72
2024/04/04 06:50:38;;;;;;;3.38;1.20;;;10.80;99.90;;;;;;5042530;28;20040;-72
2024/04/04 06:53:04;;;;;;;5.30;1.45;;;10.80;99.90;;;;;;5040363;28;20049;-71
2024/04/04 06:55:31;;;;;;;6.07;2.13;;;10.90;99.90;;;;;;5045154;28;20041;-72
2024/04/04 06:57:57;;;;;;;6.65;1.63;;;10.90;99.90;;;;;;5039247;28;20032;-71
2024/04/04 07:00:22;;;;;;;3.33;1.30;;;10.90;99.90;;;;;;5041234;28;20052;-71
2024/04/04 07:02:48;;;;;;;2.47;1.55;;;11.00;99.90;;;;;;5036366;28;20119;-71
2024/04/04 07:05:13;;;;;;;9.30;1.98;;;10.90;99.90;;;;;;5037332;28;20159;-71
2024/04/04 07:07:39;;;;;;;5.00;1.98;;;11.00;99.90;;;;;;5022604;28;20057;-70
2024/04/04 07:10:05;;;;;;;5.72;1.35;;;11.00;99.90;;;;;;5017483;28;20534;-71
2024/04/04 07:12:32;;;;;;;3.55;1.33;;;11.00;99.90;;;;;;5038467;28;20041;-71
2024/04/04 07:14:58;;;;;;;7.32;1.75;;;11.00;99.90;;;;;;5039797;28;20040;-71
2024/04/04 07:17:23;;;;;;;4.10;1.70;;;11.10;99.90;;;;;;5044306;28;20037;-70
2024/04/04 07:19:53;;;;;;;8.63;1.95;;;11.10;99.90;;;;;;5038356;28;20060;-72
2024/04/04 07:22:19;;;;;;;7.77;1.73;;;11.10;99.90;;;;;;5043292;28;20037;-69
2024/04/04 07:24:45;;;;;;;7.20;1.50;;;11.20;99.90;;;;;;5040548;28;20521;-70
2024/04/04 07:27:10;;;;;;;6.13;1.42;;;11.20;99.90;;;;;;5042416;28;20033;-73
2024/04/04 07:29:36;;;;;;;6.47;1.65;;;11.30;99.90;;;;;;5042364;28;20029;-69
2024/04/04 07:32:01;;;;;;;6.50;1.40;;;11.20;99.90;;;;;;5040403;28;20406;-71
2024/04/04 07:34:27;;;;;;;4.88;0.98;;;11.20;99.90;;;;;;5042606;28;20048;-71
2024/04/04 07:36:53;;;;;;;5.35;0.82;;;11.20;99.90;;;;;;5030797;28;20036;-71
2024/04/04 07:39:20;;;;;;;7.43;1.23;;;11.20;99.90;;;;;;5042278;28;20082;-71
2024/04/04 07:41:49;;;;;;;4.53;1.13;;;11.20;99.90;;;;;;5042165;28;20660;-71
2024/04/04 07:44:15;;;;;;;3.30;1.23;;;11.30;99.90;;;;;;5035799;28;20418;-70
2024/04/04 07:46:41;;;;;;;8.02;1.27;;;11.30;99.90;;;;;;5042042;28;20090;-70
2024/04/04 07:49:07;;;;;;;5.00;1.40;;;11.30;99.90;;;;;;5038829;28;20127;-72
2024/04/04 07:51:33;;;;;;;10.43;1.50;;;11.40;99.90;;;;;;5017064;28;20181;-69
2024/04/04 07:53:59;;;;;;;9.77;2.38;;;11.50;99.90;;;;;;5027302;28;21055;-70
2024/04/04 07:56:25;;;;;;;4.95;1.30;;;11.50;99.90;;;;;;5041457;28;20530;-71
2024/04/04 07:58:51;;;;;;;6.72;2.00;;;11.50;99.90;;;;;;5042044;28;20041;-73
2024/04/04 08:01:17;;;;;;;7.20;1.58;;;11.50;99.90;;;;;;5043052;28;20040;-71
2024/04/04 08:03:47;;;;;;;7.47;1.50;;;11.50;99.90;;;;;;5041443;28;20045;-71
2024/04/04 08:06:13;;;;;;;4.50;1.42;;;11.50;99.90;;;;;;5036363;28;20041;-71
2024/04/04 08:08:39;;;;;;;9.50;2.20;;;11.60;99.90;;;;;;5038523;28;20036;-71
2024/04/04 08:11:06;;;;;;;8.43;1.17;;;11.60;99.90;;;;;;5037431;28;20063;-70
2024/04/04 08:13:32;;;;;;;7.20;1.83;;;11.70;99.90;;;;;;5036656;28;20115;-66
2024/04/04 08:15:58;;;;;;;5.20;1.40;;;11.70;99.90;;;;;;5041306;28;20202;-70
2024/04/04 08:18:23;;;;;;;7.72;1.23;;;11.70;99.90;;;;;;5039900;28;20033;-74
2024/04/04 08:20:49;;;;;;;8.35;1.75;;;11.70;99.90;;;;;;5040464;28;20029;-73
2024/04/04 08:23:14;;;;;;;6.05;1.10;;;11.80;99.90;;;;;;5042331;28;20045;-71
2024/04/04 08:25:41;;;;;;;5.82;2.38;;;11.80;99.90;;;;;;5041636;28;20037;-72
2024/04/04 08:28:06;;;;;;;6.97;1.10;;;11.90;99.90;;;;;;5038867;28;20410;-72
2024/04/04 08:30:32;;;;;;;5.40;1.75;;;11.90;99.90;;;;;;5041445;28;20028;-68
2024/04/04 08:32:58;;;;;;;7.05;1.25;;;11.90;99.90;;;;;;5041045;28;20075;-71
2024/04/04 08:35:24;;;;;;;4.50;0.63;;;11.90;99.90;;;;;;5040832;28;20049;-71
2024/04/04 08:37:49;;;;;;;4.20;0.70;;;11.80;99.90;;;;;;5039630;28;20070;-71
2024/04/04 08:40:15;;;;;;;4.80;0.90;;;11.80;99.90;;;;;;5019357;28;20045;-70
2024/04/04 08:42:42;;;;;;;5.22;0.57;;;11.80;99.90;;;;;;5024066;28;20037;-70
2024/04/04 08:45:12;;;;;;;5.50;1.52;;;11.80;99.90;;;;;;5036853;28;20045;-71
2024/04/04 08:47:39;;;;;;;3.75;0.50;;;11.80;99.90;;;;;;5028643;28;20033;-72
2024/04/04 08:50:07;;;;;;;3.22;0.65;;;11.80;99.90;;;;;;5034798;28;20239;-71
2024/04/04 08:52:34;;;;;;;2.97;0.73;;;11.90;99.90;;;;;;5027698;28;20041;-70
2024/04/04 08:55:00;;;;;;;5.03;0.80;;;11.90;99.90;;;;;;5038637;28;20033;-71
2024/04/04 08:57:26;;;;;;;5.57;1.33;;;12.00;99.90;;;;;;5024032;28;20045;-69
2024/04/04 08:59:56;;;;;;;5.20;0.50;;;12.00;99.90;;;;;;5033907;28;20124;-71
2024/04/04 09:02:22;;;;;;;3.70;0.70;;;11.90;99.90;;;;;;5041958;28;20036;-71
2024/04/04 09:04:47;;;;;;;2.80;0.30;;;11.90;99.90;;;;;;5037759;28;20083;-71
2024/04/04 09:07:13;;;;;;;5.25;0.88;;;11.80;99.90;;;;;;5037408;28;20087;-73
2024/04/04 09:09:46;;;;;;;3.05;0.60;;;11.80;99.90;;;;;;5041661;28;20033;-72
2024/04/04 09:12:16;;;;;;;2.53;0.40;;;11.70;99.90;;;;;;5028137;28;20033;-71
2024/04/04 09:14:42;;;;;;;3.65;0.82;;;11.60;99.90;;;;;;5039435;28;20029;-71
2024/04/04 09:17:07;;;;;;;2.55;0.43;;;11.60;99.90;;;;;;5038134;28;20418;-72
2024/04/04 09:19:34;;;;;;;0.93;0.28;;;11.60;99.90;;;;;;5031283;28;20029;-72
2024/04/04 09:21:59;;;;;;;1.75;0.20;;;11.50;99.90;;;;;;5027052;28;20060;-70
2024/04/04 09:24:25;;;;;;;1.88;0.60;;;11.50;99.90;;;;;;5026941;28;20060;-71
2024/04/04 09:26:52;;;;;;;4.53;0.47;;;11.50;99.90;;;;;;5042012;28;20082;-71
2024/04/04 09:29:19;;;;;;;5.60;0.70;;;11.40;99.90;;;;;;5043982;28;20037;-72
2024/04/04 09:31:45;;;;;;;4.28;0.88;;;11.40;99.90;;;;;;5043739;28;20494;-71
2024/04/04 09:34:13;;;;;;;2.47;0.43;;;11.40;99.90;;;;;;5043730;28;20095;-71
2024/04/04 09:36:41;;;;;;;7.63;1.38;;;11.60;99.90;;;;;;5042434;28;20045;-71
2024/04/04 09:39:08;;;;;;;6.80;1.20;;;11.80;99.90;;;;;;5043701;28;20064;-72
2024/04/04 09:41:37;;;;;;;3.10;0.73;;;12.10;99.90;;;;;;5042776;28;20065;-67
2024/04/04 09:44:05;;;;;;;3.65;0.80;;;12.50;99.90;;;;;;5042650;28;20040;-71
2024/04/04 09:46:34;;;;;;;3.95;1.35;;;12.80;99.90;;;;;;5042696;28;20645;-71
2024/04/04 09:49:00;;;;;;;2.47;0.80;;;13.00;99.90;;;;;;5040653;28;20022;-72
2024/04/04 09:51:27;;;;;;;6.63;1.67;;;13.10;99.90;;;;;;5041408;28;20043;-68
2024/04/04 09:53:53;;;;;;;7.85;1.10;;;13.10;99.90;;;;;;5038839;28;20133;-69
2024/04/04 09:56:21;;;;;;;6.35;0.95;;;13.20;99.90;;;;;;5031777;28;20040;-70
2024/04/04 09:58:47;;;;;;;5.07;1.05;;;13.20;99.90;;;;;;5032336;28;20037;-70
2024/04/04 10:01:21;;;;;;;6.30;0.80;;;13.20;99.90;;;;;;5023673;28;20029;-69
2024/04/04 10:03:50;;;;;;;1.60;0.40;;;13.10;99.90;;;;;;5019946;28;20120;-71
2024/04/04 10:06:36;;;;;;;3.83;0.80;;;13.20;99.90;;;;;;5032910;28;20702;-68
2024/04/04 10:09:21;;;;;;;3.40;0.40;;;13.30;99.90;;;;;;5018645;28;20574;-67
2024/04/04 10:11:47;;;;;;;4.05;1.15;;;13.40;99.90;;;;;;5035188;28;20037;-69
2024/04/04 10:14:21;;;;;;;5.95;0.82;;;13.50;99.90;;;;;;5024655;28;20071;-72
2024/04/04 10:16:50;;;;;;;9.80;0.70;;;13.70;99.90;;;;;;5042040;28;20060;-70
2024/04/04 10:19:18;;;;;;;1.73;0.40;;;13.80;99.90;;;;;;5026716;28;20727;-70
2024/04/04 10:21:44;;;;;;;9.07;0.77;;;14.00;99.90;;;;;;5043314;28;20029;-71
2024/04/04 10:24:22;;;;;;;7.13;1.08;;;14.10;99.90;;;;;;5039945;28;20751;-70
2024/04/04 10:26:55;;;;;;;4.18;0.60;;;14.00;99.90;;;;;;5042969;28;20091;-71
2024/04/04 10:29:33;;;;;;;4.28;0.85;;;14.00;99.90;;;;;;5046693;28;20040;-69
2024/04/04 10:31:58;;;;;;;8.75;0.90;;;14.10;99.90;;;;;;5008035;28;20093;-69
2024/04/04 10:34:24;;;;;;;3.33;1.20;;;14.00;99.90;;;;;;5037242;28;20132;-71
2024/04/04 10:36:50;;;;;;;4.00;0.45;;;14.10;99.90;;;;;;5052523;28;20091;-69
2024/04/04 10:39:17;;;;;;;4.35;0.75;;;14.10;99.90;;;;;;5037675;28;20029;-70
2024/04/04 10:41:47;;;;;;;8.52;0.70;;;14.20;99.90;;;;;;5041083;28;20037;-70
2024/04/04 10:44:17;;;;;;;5.22;0.57;;;14.20;99.90;;;;;;5039524;28;20090;-68
2024/04/04 10:46:47;;;;;;;8.70;1.05;;;14.40;99.90;;;;;;5040174;28;20056;-72
2024/04/04 10:49:13;;;;;;;;;;;14.40;99.90;;;;;;5040756;28;20032;-71
2024/04/04 10:51:44;;;;;;;6.13;0.63;;;14.50;99.90;;;;;;5037175;28;19944;-69
2024/04/04 10:54:10;;;;;;;4.50;0.43;;;14.60;99.90;;;;;;5036763;28;20065;-71
2024/04/04 10:56:36;;;;;;;5.63;0.98;;;14.60;99.90;;;;;;5037397;28;20179;-70
2024/04/04 10:59:02;;;;;;;8.27;1.27;;;14.60;99.90;;;;;;5038707;28;20123;-69
2024/04/04 11:01:29;;;;;;;3.58;0.50;;;14.70;99.90;;;;;;5042081;28;20183;-71
2024/04/04 11:03:54;;;;;;;4.88;0.47;;;14.80;99.90;;;;;;5041332;28;20033;-72
2024/04/04 11:06:20;;;;;;;11.35;1.45;;;14.80;99.90;;;;;;5043241;28;20040;-71
2024/04/04 11:08:49;;;;;;;7.40;1.65;;;14.90;99.90;;;;;;5040640;28;20090;-71
2024/04/04 11:11:16;;;;;;;4.22;0.75;;;14.90;99.90;;;;;;5040057;28;20599;-73
2024/04/04 11:13:42;;;;;;;4.10;1.48;;;15.00;99.90;;;;;;5040544;28;20171;-71
2024/04/04 11:16:09;;;;;;;12.10;1.40;;;15.00;99.90;;;;;;5039722;28;20087;-70
2024/04/04 11:18:37;;;;;;;9.90;1.40;;;15.20;99.90;;;;;;5034716;28;20110;-71
2024/04/04 11:21:04;;;;;;;7.75;1.48;;;15.20;99.90;;;;;;5026404;28;20037;-71
2024/04/04 11:23:30;;;;;;;5.30;0.95;;;15.20;99.90;;;;;;5037971;28;20502;-72
2024/04/04 11:25:56;;;;;;;8.40;1.70;;;15.20;99.90;;;;;;5041712;28;20040;-72
2024/04/04 11:28:22;;;;;;;5.72;0.60;;;15.20;99.90;;;;;;5030083;28;20564;-72
2024/04/04 11:30:48;;;;;;;9.82;0.82;;;15.10;99.90;;;;;;5029414;28;20037;-71
2024/04/04 11:33:13;;;;;;;6.15;0.90;;;15.20;99.90;;;;;;5041851;28;20043;-70
2024/04/04 11:35:39;;;;;;;10.85;2.50;;;15.10;99.90;;;;;;5028661;28;20049;-70
2024/04/04 11:38:04;;;;;;;5.30;0.70;;;15.30;99.90;;;;;;5030594;28;20080;-72
2024/04/04 11:40:30;;;;;;;4.80;1.38;;;15.30;99.90;;;;;;5034743;28;20087;-71
2024/04/04 11:42:55;;;;;;;9.38;1.17;;;15.40;99.90;;;;;;5026825;28;20033;-70
2024/04/04 11:45:21;;;;;;;10.70;2.20;;;15.40;99.90;;;;;;5031108;28;20048;-72
2024/04/04 11:47:47;;;;;;;8.82;1.88;;;15.30;99.90;;;;;;5039323;28;20116;-70
2024/04/04 11:50:13;;;;;;;9.73;1.50;;;15.20;99.90;;;;;;5039894;28;20071;-69
2024/04/04 11:52:39;;;;;;;6.10;1.17;;;15.30;99.90;;;;;;5042408;28;20033;-71
2024/04/04 11:55:07;;;;;;;6.57;0.90;;;15.30;99.90;;;;;;5038993;28;20508;-73
2024/04/04 11:57:32;;;;;;;18.40;2.10;;;15.40;99.90;;;;;;5039760;28;20045;-71
2024/04/04 11:59:58;;;;;;;9.82;0.90;;;15.30;99.90;;;;;;5041260;28;20041;-72
2024/04/04 12:02:23;;;;;;;9.90;1.05;;;15.30;99.90;;;;;;5040902;28;20037;-72
2024/04/04 12:04:49;;;;;;;6.00;1.00;;;15.20;99.90;;;;;;5039846;28;20025;-72
2024/04/04 12:07:15;;;;;;;8.88;1.80;;;15.10;99.90;;;;;;5041792;28;20071;-73
2024/04/04 12:09:40;;;;;;;8.25;1.20;;;15.10;99.90;;;;;;5042018;28;20033;-71
2024/04/04 12:12:06;;;;;;;16.58;1.67;;;15.20;99.90;;;;;;5042357;28;20517;-70
2024/04/04 12:14:32;;;;;;;12.27;2.00;;;15.40;99.90;;;;;;5042225;28;20560;-71
2024/04/04 12:16:57;;;;;;;7.68;1.25;;;15.70;99.90;;;;;;5032159;28;20163;-71
2024/04/04 12:19:26;;;;;;;7.10;0.95;;;15.80;99.90;;;;;;5041943;28;20059;-70
2024/04/04 12:21:53;;;;;;;7.57;0.90;;;16.00;99.90;;;;;;5040872;28;20494;-71
2024/04/04 12:24:19;;;;;;;6.88;1.23;;;16.10;99.90;;;;;;5032531;28;20106;-69
2024/04/04 12:26:46;;;;;;;8.48;1.00;;;16.00;99.90;;;;;;5041719;28;20033;-72
2024/04/04 12:29:12;;;;;;;7.47;1.05;;;15.90;99.90;;;;;;5039308;28;20445;-70
2024/04/04 12:31:38;;;;;;;8.15;1.70;;;15.70;99.90;;;;;;5038620;28;20045;-71
2024/04/04 12:34:04;;;;;;;7.72;1.65;;;15.70;99.90;;;;;;5036365;28;20041;-69
2024/04/04 12:36:31;;;;;;;13.88;1.50;;;15.60;99.90;;;;;;5042274;28;20048;-71
2024/04/04 12:38:57;;;;;;;16.77;1.70;;;15.50;99.90;;;;;;5039056;28;20413;-70
2024/04/04 12:41:22;;;;;;;15.73;1.63;;;15.40;99.90;;;;;;5041637;28;20029;-72
2024/04/04 12:43:48;;;;;;;11.35;1.52;;;15.30;99.90;;;;;;5040892;28;20040;-71
2024/04/04 12:46:14;;;;;;;11.32;1.85;;;15.30;99.90;;;;;;5041057;28;20679;-71